sensor_id;sensor_type;location;lat;lon;timestamp;P1;durP1;ratioP1;P2;durP2;ratioP2
52934;SDS011;38802;50.198;19.796;2023-04-30T00:00:49;14.10;;;12.80;;
52934;SDS011;38802;50.198;19.796;2023-04-30T00:03:49;13.90;;;12.60;;
52934;SDS011;38802;50.198;19.796;2023-04-30T00:06:17;14.00;;;12.60;;
52934;SDS011;38802;50.198;19.796;2023-04-30T00:08:45;14.20;;;12.70;;
52934;SDS011;38802;50.198;19.796;2023-04-30T00:11:13;13.90;;;12.40;;
52934;SDS011;38802;50.198;19.796;2023-04-30T00:13:41;15.00;;;13.70;;
52934;SDS011;38802;50.198;19.796;2023-04-30T00:16:10;15.30;;;12.90;;
52934;SDS011;38802;50.198;19.796;2023-04-30T00:18:38;15.60;;;13.30;;
52934;SDS011;38802;50.198;19.796;2023-04-30T00:21:05;15.30;;;13.60;;
52934;SDS011;38802;50.198;19.796;2023-04-30T00:23:33;16.80;;;13.90;;
52934;SDS011;38802;50.198;19.796;2023-04-30T00:26:02;14.40;;;13.10;;
52934;SDS011;38802;50.198;19.796;2023-04-30T00:28:30;12.70;;;11.40;;
52934;SDS011;38802;50.198;19.796;2023-04-30T00:30:58;15.50;;;12.40;;
52934;SDS011;38802;50.198;19.796;2023-04-30T00:33:26;14.50;;;13.10;;
52934;SDS011;38802;50.198;19.796;2023-04-30T00:35:54;16.90;;;12.80;;
52934;SDS011;38802;50.198;19.796;2023-04-30T00:38:22;15.00;;;13.50;;
52934;SDS011;38802;50.198;19.796;2023-04-30T00:40:50;15.40;;;12.70;;
52934;SDS011;38802;50.198;19.796;2023-04-30T00:43:19;17.20;;;15.30;;
52934;SDS011;38802;50.198;19.796;2023-04-30T00:45:47;20.40;;;17.50;;
52934;SDS011;38802;50.198;19.796;2023-04-30T00:48:15;20.90;;;18.50;;
52934;SDS011;38802;50.198;19.796;2023-04-30T00:50:45;18.60;;;15.80;;
52934;SDS011;38802;50.198;19.796;2023-04-30T00:53:12;18.90;;;16.90;;
52934;SDS011;38802;50.198;19.796;2023-04-30T00:55:41;15.70;;;14.10;;
52934;SDS011;38802;50.198;19.796;2023-04-30T00:58:11;16.20;;;14.60;;
52934;SDS011;38802;50.198;19.796;2023-04-30T01:00:39;16.50;;;14.80;;
52934;SDS011;38802;50.198;19.796;2023-04-30T01:03:13;16.70;;;15.00;;
52934;SDS011;38802;50.198;19.796;2023-04-30T01:05:41;16.00;;;14.60;;
52934;SDS011;38802;50.198;19.796;2023-04-30T01:08:09;15.40;;;14.00;;
52934;SDS011;38802;50.198;19.796;2023-04-30T01:10:46;14.30;;;13.00;;
52934;SDS011;38802;50.198;19.796;2023-04-30T01:13:31;13.50;;;12.10;;
52934;SDS011;38802;50.198;19.796;2023-04-30T01:16:28;16.50;;;13.10;;
52934;SDS011;38802;50.198;19.796;2023-04-30T01:22:04;8.60;;;7.90;;
52934;SDS011;38802;50.198;19.796;2023-04-30T01:30:41;7.80;;;7.20;;
52934;SDS011;38802;50.198;19.796;2023-04-30T01:33:13;6.20;;;5.70;;
52934;SDS011;38802;50.198;19.796;2023-04-30T01:41:07;5.30;;;4.90;;
52934;SDS011;38802;50.198;19.796;2023-04-30T01:43:49;5.50;;;5.00;;
52934;SDS011;38802;50.198;19.796;2023-04-30T01:46:26;6.90;;;6.30;;
52934;SDS011;38802;50.198;19.796;2023-04-30T01:52:08;9.80;;;8.80;;
52934;SDS011;38802;50.198;19.796;2023-04-30T01:54:44;10.30;;;9.40;;
52934;SDS011;38802;50.198;19.796;2023-04-30T02:00:14;10.10;;;9.20;;
52934;SDS011;38802;50.198;19.796;2023-04-30T02:02:44;10.90;;;9.90;;
52934;SDS011;38802;50.198;19.796;2023-04-30T02:05:12;11.70;;;10.60;;
52934;SDS011;38802;50.198;19.796;2023-04-30T02:07:42;12.30;;;11.00;;
52934;SDS011;38802;50.198;19.796;2023-04-30T02:10:12;13.70;;;12.10;;
52934;SDS011;38802;50.198;19.796;2023-04-30T02:12:41;13.20;;;11.90;;
52934;SDS011;38802;50.198;19.796;2023-04-30T02:15:09;12.40;;;11.10;;
52934;SDS011;38802;50.198;19.796;2023-04-30T02:17:40;13.80;;;12.30;;
52934;SDS011;38802;50.198;19.796;2023-04-30T02:20:08;13.10;;;11.50;;
52934;SDS011;38802;50.198;19.796;2023-04-30T02:22:37;12.00;;;10.70;;
52934;SDS011;38802;50.198;19.796;2023-04-30T02:25:06;12.10;;;10.90;;
52934;SDS011;38802;50.198;19.796;2023-04-30T02:27:34;12.50;;;11.20;;
52934;SDS011;38802;50.198;19.796;2023-04-30T02:30:02;11.30;;;10.20;;
52934;SDS011;38802;50.198;19.796;2023-04-30T02:32:31;11.70;;;10.30;;
52934;SDS011;38802;50.198;19.796;2023-04-30T02:34:59;12.90;;;10.60;;
52934;SDS011;38802;50.198;19.796;2023-04-30T02:37:27;10.60;;;9.50;;
52934;SDS011;38802;50.198;19.796;2023-04-30T02:39:55;8.40;;;7.60;;
52934;SDS011;38802;50.198;19.796;2023-04-30T02:42:25;6.60;;;5.50;;
52934;SDS011;38802;50.198;19.796;2023-04-30T02:44:53;5.90;;;5.30;;
52934;SDS011;38802;50.198;19.796;2023-04-30T02:47:21;5.10;;;4.70;;
52934;SDS011;38802;50.198;19.796;2023-04-30T02:49:49;5.90;;;5.40;;
52934;SDS011;38802;50.198;19.796;2023-04-30T02:52:17;5.20;;;4.80;;
52934;SDS011;38802;50.198;19.796;2023-04-30T02:54:45;5.10;;;4.70;;
52934;SDS011;38802;50.198;19.796;2023-04-30T02:57:13;4.60;;;4.00;;
52934;SDS011;38802;50.198;19.796;2023-04-30T02:59:41;7.20;;;5.20;;
52934;SDS011;38802;50.198;19.796;2023-04-30T03:02:12;6.30;;;5.50;;
52934;SDS011;38802;50.198;19.796;2023-04-30T03:04:41;7.70;;;7.00;;
52934;SDS011;38802;50.198;19.796;2023-04-30T03:07:09;8.20;;;7.40;;
52934;SDS011;38802;50.198;19.796;2023-04-30T03:09:38;9.10;;;8.30;;
52934;SDS011;38802;50.198;19.796;2023-04-30T03:12:06;10.00;;;8.10;;
52934;SDS011;38802;50.198;19.796;2023-04-30T03:14:34;9.10;;;8.10;;
52934;SDS011;38802;50.198;19.796;2023-04-30T03:17:02;8.90;;;8.10;;
52934;SDS011;38802;50.198;19.796;2023-04-30T03:19:30;8.60;;;7.20;;
52934;SDS011;38802;50.198;19.796;2023-04-30T03:21:58;8.60;;;7.80;;
52934;SDS011;38802;50.198;19.796;2023-04-30T03:24:26;7.50;;;6.80;;
52934;SDS011;38802;50.198;19.796;2023-04-30T03:26:54;8.80;;;8.10;;
52934;SDS011;38802;50.198;19.796;2023-04-30T03:29:23;9.00;;;7.80;;
52934;SDS011;38802;50.198;19.796;2023-04-30T03:31:51;7.50;;;6.80;;
52934;SDS011;38802;50.198;19.796;2023-04-30T03:34:19;6.50;;;5.90;;
52934;SDS011;38802;50.198;19.796;2023-04-30T03:36:47;6.90;;;6.00;;
52934;SDS011;38802;50.198;19.796;2023-04-30T03:39:15;7.00;;;6.40;;
52934;SDS011;38802;50.198;19.796;2023-04-30T03:41:43;7.20;;;6.60;;
52934;SDS011;38802;50.198;19.796;2023-04-30T03:44:11;6.90;;;6.30;;
52934;SDS011;38802;50.198;19.796;2023-04-30T03:46:43;8.20;;;7.60;;
52934;SDS011;38802;50.198;19.796;2023-04-30T03:49:11;7.20;;;6.60;;
52934;SDS011;38802;50.198;19.796;2023-04-30T03:51:39;9.00;;;8.10;;
52934;SDS011;38802;50.198;19.796;2023-04-30T03:54:08;8.80;;;8.00;;
52934;SDS011;38802;50.198;19.796;2023-04-30T03:56:36;8.20;;;7.50;;
52934;SDS011;38802;50.198;19.796;2023-04-30T03:59:05;7.90;;;7.30;;
52934;SDS011;38802;50.198;19.796;2023-04-30T04:01:34;9.30;;;8.50;;
52934;SDS011;38802;50.198;19.796;2023-04-30T04:04:02;9.00;;;8.20;;
52934;SDS011;38802;50.198;19.796;2023-04-30T04:06:31;9.70;;;8.80;;
52934;SDS011;38802;50.198;19.796;2023-04-30T04:08:59;9.50;;;8.70;;
52934;SDS011;38802;50.198;19.796;2023-04-30T04:11:27;9.90;;;8.90;;
52934;SDS011;38802;50.198;19.796;2023-04-30T04:13:56;11.00;;;10.00;;
52934;SDS011;38802;50.198;19.796;2023-04-30T04:16:24;9.40;;;8.60;;
52934;SDS011;38802;50.198;19.796;2023-04-30T04:18:52;12.80;;;11.60;;
52934;SDS011;38802;50.198;19.796;2023-04-30T04:21:20;12.20;;;11.10;;
52934;SDS011;38802;50.198;19.796;2023-04-30T04:23:48;11.60;;;10.40;;
52934;SDS011;38802;50.198;19.796;2023-04-30T04:26:17;11.20;;;10.20;;
52934;SDS011;38802;50.198;19.796;2023-04-30T04:28:48;12.30;;;11.20;;
52934;SDS011;38802;50.198;19.796;2023-04-30T04:31:16;11.20;;;10.20;;
52934;SDS011;38802;50.198;19.796;2023-04-30T04:33:44;12.60;;;11.50;;
52934;SDS011;38802;50.198;19.796;2023-04-30T04:36:13;11.50;;;10.60;;
52934;SDS011;38802;50.198;19.796;2023-04-30T04:38:42;12.30;;;11.20;;
52934;SDS011;38802;50.198;19.796;2023-04-30T04:41:11;9.40;;;8.60;;
52934;SDS011;38802;50.198;19.796;2023-04-30T04:43:39;7.90;;;7.30;;
52934;SDS011;38802;50.198;19.796;2023-04-30T04:46:08;9.20;;;8.40;;
52934;SDS011;38802;50.198;19.796;2023-04-30T04:48:38;10.10;;;9.40;;
52934;SDS011;38802;50.198;19.796;2023-04-30T04:51:08;9.00;;;8.30;;
52934;SDS011;38802;50.198;19.796;2023-04-30T04:53:37;9.50;;;8.50;;
52934;SDS011;38802;50.198;19.796;2023-04-30T04:56:05;8.00;;;7.30;;
52934;SDS011;38802;50.198;19.796;2023-04-30T04:58:34;6.40;;;6.00;;
52934;SDS011;38802;50.198;19.796;2023-04-30T05:01:03;6.80;;;6.30;;
52934;SDS011;38802;50.198;19.796;2023-04-30T05:03:33;6.90;;;6.40;;
52934;SDS011;38802;50.198;19.796;2023-04-30T05:06:04;7.00;;;6.50;;
52934;SDS011;38802;50.198;19.796;2023-04-30T05:08:32;6.80;;;6.20;;
52934;SDS011;38802;50.198;19.796;2023-04-30T05:11:00;7.40;;;6.70;;
52934;SDS011;38802;50.198;19.796;2023-04-30T05:13:28;8.70;;;7.40;;
52934;SDS011;38802;50.198;19.796;2023-04-30T05:15:56;8.30;;;7.50;;
52934;SDS011;38802;50.198;19.796;2023-04-30T05:18:24;12.70;;;10.30;;
52934;SDS011;38802;50.198;19.796;2023-04-30T05:20:52;13.00;;;11.20;;
52934;SDS011;38802;50.198;19.796;2023-04-30T05:23:20;14.20;;;11.60;;
52934;SDS011;38802;50.198;19.796;2023-04-30T05:25:51;13.70;;;12.50;;
52934;SDS011;38802;50.198;19.796;2023-04-30T05:28:20;12.40;;;11.30;;
52934;SDS011;38802;50.198;19.796;2023-04-30T05:30:47;13.80;;;12.40;;
52934;SDS011;38802;50.198;19.796;2023-04-30T05:33:15;13.20;;;11.90;;
52934;SDS011;38802;50.198;19.796;2023-04-30T05:35:44;19.20;;;11.90;;
52934;SDS011;38802;50.198;19.796;2023-04-30T05:38:12;13.50;;;12.30;;
52934;SDS011;38802;50.198;19.796;2023-04-30T05:40:39;14.70;;;13.10;;
52934;SDS011;38802;50.198;19.796;2023-04-30T05:43:07;18.80;;;13.80;;
52934;SDS011;38802;50.198;19.796;2023-04-30T05:45:35;15.60;;;13.00;;
52934;SDS011;38802;50.198;19.796;2023-04-30T05:48:04;14.40;;;11.60;;
52934;SDS011;38802;50.198;19.796;2023-04-30T05:50:32;14.70;;;13.20;;
52934;SDS011;38802;50.198;19.796;2023-04-30T05:53:00;17.70;;;12.70;;
52934;SDS011;38802;50.198;19.796;2023-04-30T05:55:28;15.40;;;13.10;;
52934;SDS011;38802;50.198;19.796;2023-04-30T05:57:57;13.50;;;11.50;;
52934;SDS011;38802;50.198;19.796;2023-04-30T06:00:25;17.00;;;11.40;;
52934;SDS011;38802;50.198;19.796;2023-04-30T06:02:53;12.50;;;11.00;;
52934;SDS011;38802;50.198;19.796;2023-04-30T06:05:21;13.20;;;11.90;;
52934;SDS011;38802;50.198;19.796;2023-04-30T06:07:49;14.70;;;10.70;;
52934;SDS011;38802;50.198;19.796;2023-04-30T06:10:17;14.30;;;12.10;;
52934;SDS011;38802;50.198;19.796;2023-04-30T06:12:45;17.40;;;12.80;;
52934;SDS011;38802;50.198;19.796;2023-04-30T06:15:13;14.80;;;12.70;;
52934;SDS011;38802;50.198;19.796;2023-04-30T06:17:41;12.50;;;11.10;;
52934;SDS011;38802;50.198;19.796;2023-04-30T06:20:09;13.80;;;11.30;;
52934;SDS011;38802;50.198;19.796;2023-04-30T06:22:38;16.70;;;11.00;;
52934;SDS011;38802;50.198;19.796;2023-04-30T06:25:07;13.70;;;10.00;;
52934;SDS011;38802;50.198;19.796;2023-04-30T06:27:36;11.90;;;10.20;;
52934;SDS011;38802;50.198;19.796;2023-04-30T06:30:04;16.20;;;9.80;;
52934;SDS011;38802;50.198;19.796;2023-04-30T06:32:33;13.60;;;10.80;;
52934;SDS011;38802;50.198;19.796;2023-04-30T06:35:01;13.80;;;9.70;;
52934;SDS011;38802;50.198;19.796;2023-04-30T06:37:29;11.90;;;9.80;;
52934;SDS011;38802;50.198;19.796;2023-04-30T06:40:05;10.40;;;9.20;;
52934;SDS011;38802;50.198;19.796;2023-04-30T06:42:34;10.40;;;9.50;;
52934;SDS011;38802;50.198;19.796;2023-04-30T06:45:02;9.80;;;8.90;;
52934;SDS011;38802;50.198;19.796;2023-04-30T06:47:34;11.30;;;10.20;;
52934;SDS011;38802;50.198;19.796;2023-04-30T06:50:04;13.20;;;9.80;;
52934;SDS011;38802;50.198;19.796;2023-04-30T06:52:33;10.40;;;9.40;;
52934;SDS011;38802;50.198;19.796;2023-04-30T06:55:01;15.00;;;9.30;;
52934;SDS011;38802;50.198;19.796;2023-04-30T06:57:29;14.50;;;10.00;;
52934;SDS011;38802;50.198;19.796;2023-04-30T06:59:57;10.10;;;9.10;;
52934;SDS011;38802;50.198;19.796;2023-04-30T07:02:25;11.00;;;9.20;;
52934;SDS011;38802;50.198;19.796;2023-04-30T07:04:54;10.90;;;8.60;;
52934;SDS011;38802;50.198;19.796;2023-04-30T07:07:22;10.90;;;9.60;;
52934;SDS011;38802;50.198;19.796;2023-04-30T07:09:50;9.90;;;8.40;;
52934;SDS011;38802;50.198;19.796;2023-04-30T07:12:20;14.00;;;9.10;;
52934;SDS011;38802;50.198;19.796;2023-04-30T07:14:49;10.10;;;9.10;;
52934;SDS011;38802;50.198;19.796;2023-04-30T07:17:17;10.60;;;8.50;;
52934;SDS011;38802;50.198;19.796;2023-04-30T07:19:45;12.00;;;8.30;;
52934;SDS011;38802;50.198;19.796;2023-04-30T07:22:13;14.20;;;8.80;;
52934;SDS011;38802;50.198;19.796;2023-04-30T07:24:41;9.80;;;8.90;;
52934;SDS011;38802;50.198;19.796;2023-04-30T07:27:09;15.80;;;8.00;;
52934;SDS011;38802;50.198;19.796;2023-04-30T07:29:37;11.00;;;7.20;;
52934;SDS011;38802;50.198;19.796;2023-04-30T07:32:05;8.90;;;8.00;;
52934;SDS011;38802;50.198;19.796;2023-04-30T07:34:33;8.00;;;7.30;;
52934;SDS011;38802;50.198;19.796;2023-04-30T07:37:01;8.20;;;7.30;;
52934;SDS011;38802;50.198;19.796;2023-04-30T07:39:29;8.10;;;7.20;;
52934;SDS011;38802;50.198;19.796;2023-04-30T07:41:57;11.60;;;7.60;;
52934;SDS011;38802;50.198;19.796;2023-04-30T07:44:25;7.50;;;6.40;;
52934;SDS011;38802;50.198;19.796;2023-04-30T07:46:53;7.40;;;6.70;;
52934;SDS011;38802;50.198;19.796;2023-04-30T07:49:21;7.20;;;6.60;;
52934;SDS011;38802;50.198;19.796;2023-04-30T07:51:50;8.10;;;5.70;;
52934;SDS011;38802;50.198;19.796;2023-04-30T07:54:21;7.80;;;6.20;;
52934;SDS011;38802;50.198;19.796;2023-04-30T07:56:50;7.90;;;6.40;;
52934;SDS011;38802;50.198;19.796;2023-04-30T07:59:18;5.90;;;5.00;;
52934;SDS011;38802;50.198;19.796;2023-04-30T08:01:47;6.20;;;5.60;;
52934;SDS011;38802;50.198;19.796;2023-04-30T08:04:15;8.80;;;5.70;;
52934;SDS011;38802;50.198;19.796;2023-04-30T08:06:43;7.10;;;5.50;;
52934;SDS011;38802;50.198;19.796;2023-04-30T08:09:11;5.30;;;4.80;;
52934;SDS011;38802;50.198;19.796;2023-04-30T08:11:40;5.80;;;5.30;;
52934;SDS011;38802;50.198;19.796;2023-04-30T08:14:08;10.60;;;6.30;;
52934;SDS011;38802;50.198;19.796;2023-04-30T08:16:36;7.70;;;6.20;;
52934;SDS011;38802;50.198;19.796;2023-04-30T08:19:04;5.80;;;5.10;;
52934;SDS011;38802;50.198;19.796;2023-04-30T08:21:32;7.10;;;5.20;;
52934;SDS011;38802;50.198;19.796;2023-04-30T08:24:00;7.80;;;5.60;;
52934;SDS011;38802;50.198;19.796;2023-04-30T08:26:28;8.80;;;5.80;;
52934;SDS011;38802;50.198;19.796;2023-04-30T08:28:56;7.90;;;5.50;;
52934;SDS011;38802;50.198;19.796;2023-04-30T08:31:24;7.50;;;5.70;;
52934;SDS011;38802;50.198;19.796;2023-04-30T08:33:52;9.20;;;5.70;;
52934;SDS011;38802;50.198;19.796;2023-04-30T08:36:20;6.10;;;4.90;;
52934;SDS011;38802;50.198;19.796;2023-04-30T08:38:48;8.00;;;4.90;;
52934;SDS011;38802;50.198;19.796;2023-04-30T08:41:16;8.40;;;5.50;;
52934;SDS011;38802;50.198;19.796;2023-04-30T08:43:46;5.80;;;5.00;;
52934;SDS011;38802;50.198;19.796;2023-04-30T08:46:17;9.10;;;6.10;;
52934;SDS011;38802;50.198;19.796;2023-04-30T08:48:47;8.20;;;5.10;;
52934;SDS011;38802;50.198;19.796;2023-04-30T08:51:15;5.60;;;4.80;;
52934;SDS011;38802;50.198;19.796;2023-04-30T08:53:43;5.50;;;5.00;;
52934;SDS011;38802;50.198;19.796;2023-04-30T08:56:12;7.00;;;6.30;;
52934;SDS011;38802;50.198;19.796;2023-04-30T08:58:40;6.20;;;5.20;;
52934;SDS011;38802;50.198;19.796;2023-04-30T09:01:08;9.10;;;5.80;;
52934;SDS011;38802;50.198;19.796;2023-04-30T09:03:37;6.10;;;5.40;;
52934;SDS011;38802;50.198;19.796;2023-04-30T09:06:05;6.30;;;5.30;;
52934;SDS011;38802;50.198;19.796;2023-04-30T09:08:48;13.90;;;6.00;;
52934;SDS011;38802;50.198;19.796;2023-04-30T09:13:50;9.00;;;5.30;;
52934;SDS011;38802;50.198;19.796;2023-04-30T09:16:20;8.20;;;5.60;;
52934;SDS011;38802;50.198;19.796;2023-04-30T09:18:49;7.80;;;4.50;;
52934;SDS011;38802;50.198;19.796;2023-04-30T09:21:31;7.30;;;5.00;;
52934;SDS011;38802;50.198;19.796;2023-04-30T09:24:01;10.30;;;4.90;;
52934;SDS011;38802;50.198;19.796;2023-04-30T09:26:32;7.40;;;4.70;;
52934;SDS011;38802;50.198;19.796;2023-04-30T09:29:02;7.80;;;4.50;;
52934;SDS011;38802;50.198;19.796;2023-04-30T09:31:38;5.20;;;3.50;;
52934;SDS011;38802;50.198;19.796;2023-04-30T09:34:08;4.40;;;3.60;;
52934;SDS011;38802;50.198;19.796;2023-04-30T09:36:39;8.60;;;3.10;;
52934;SDS011;38802;50.198;19.796;2023-04-30T09:39:19;8.10;;;3.20;;
52934;SDS011;38802;50.198;19.796;2023-04-30T09:41:49;3.90;;;3.50;;
52934;SDS011;38802;50.198;19.796;2023-04-30T09:44:28;4.10;;;2.80;;
52934;SDS011;38802;50.198;19.796;2023-04-30T09:46:57;4.30;;;3.90;;
52934;SDS011;38802;50.198;19.796;2023-04-30T09:49:26;7.30;;;3.40;;
52934;SDS011;38802;50.198;19.796;2023-04-30T09:54:27;5.00;;;3.80;;
52934;SDS011;38802;50.198;19.796;2023-04-30T09:56:57;6.50;;;3.70;;
52934;SDS011;38802;50.198;19.796;2023-04-30T09:59:30;5.90;;;2.90;;
52934;SDS011;38802;50.198;19.796;2023-04-30T10:02:00;3.40;;;2.80;;
52934;SDS011;38802;50.198;19.796;2023-04-30T10:04:30;4.00;;;2.30;;
52934;SDS011;38802;50.198;19.796;2023-04-30T10:07:02;9.50;;;2.90;;
52934;SDS011;38802;50.198;19.796;2023-04-30T10:09:56;3.70;;;3.10;;
52934;SDS011;38802;50.198;19.796;2023-04-30T10:12:26;4.30;;;3.10;;
52934;SDS011;38802;50.198;19.796;2023-04-30T10:15:14;7.70;;;3.00;;
52934;SDS011;38802;50.198;19.796;2023-04-30T10:17:46;4.60;;;3.40;;
52934;SDS011;38802;50.198;19.796;2023-04-30T10:20:21;7.60;;;3.10;;
52934;SDS011;38802;50.198;19.796;2023-04-30T10:22:52;6.80;;;3.50;;
52934;SDS011;38802;50.198;19.796;2023-04-30T10:25:21;4.50;;;3.00;;
52934;SDS011;38802;50.198;19.796;2023-04-30T10:27:50;8.50;;;3.40;;
52934;SDS011;38802;50.198;19.796;2023-04-30T10:30:18;4.50;;;3.10;;
52934;SDS011;38802;50.198;19.796;2023-04-30T10:32:51;3.80;;;2.60;;
52934;SDS011;38802;50.198;19.796;2023-04-30T10:35:46;8.20;;;2.90;;
52934;SDS011;38802;50.198;19.796;2023-04-30T10:38:21;3.80;;;2.90;;
52934;SDS011;38802;50.198;19.796;2023-04-30T10:40:55;3.30;;;2.50;;
52934;SDS011;38802;50.198;19.796;2023-04-30T10:43:24;4.20;;;2.90;;
52934;SDS011;38802;50.198;19.796;2023-04-30T10:45:53;3.70;;;2.80;;
52934;SDS011;38802;50.198;19.796;2023-04-30T10:48:21;5.20;;;3.30;;
52934;SDS011;38802;50.198;19.796;2023-04-30T10:50:54;7.60;;;3.30;;
52934;SDS011;38802;50.198;19.796;2023-04-30T10:53:24;5.00;;;3.50;;
52934;SDS011;38802;50.198;19.796;2023-04-30T10:58:30;6.10;;;3.00;;
52934;SDS011;38802;50.198;19.796;2023-04-30T11:03:29;5.70;;;3.60;;
52934;SDS011;38802;50.198;19.796;2023-04-30T11:05:59;6.60;;;3.50;;
52934;SDS011;38802;50.198;19.796;2023-04-30T11:08:31;5.40;;;3.40;;
52934;SDS011;38802;50.198;19.796;2023-04-30T11:11:00;4.70;;;3.50;;
52934;SDS011;38802;50.198;19.796;2023-04-30T11:13:38;3.70;;;2.90;;
52934;SDS011;38802;50.198;19.796;2023-04-30T11:16:14;4.30;;;3.00;;
52934;SDS011;38802;50.198;19.796;2023-04-30T11:18:43;5.70;;;3.20;;
52934;SDS011;38802;50.198;19.796;2023-04-30T11:21:12;4.90;;;2.50;;
52934;SDS011;38802;50.198;19.796;2023-04-30T11:23:41;3.90;;;3.20;;
52934;SDS011;38802;50.198;19.796;2023-04-30T11:26:10;6.80;;;3.00;;
52934;SDS011;38802;50.198;19.796;2023-04-30T11:28:38;5.20;;;3.70;;
52934;SDS011;38802;50.198;19.796;2023-04-30T11:31:22;3.10;;;2.80;;
52934;SDS011;38802;50.198;19.796;2023-04-30T11:34:00;2.40;;;2.20;;
52934;SDS011;38802;50.198;19.796;2023-04-30T11:36:30;4.40;;;2.70;;
52934;SDS011;38802;50.198;19.796;2023-04-30T11:39:00;5.00;;;2.50;;
52934;SDS011;38802;50.198;19.796;2023-04-30T11:41:39;4.20;;;2.40;;
52934;SDS011;38802;50.198;19.796;2023-04-30T11:44:26;4.10;;;2.50;;
52934;SDS011;38802;50.198;19.796;2023-04-30T11:46:54;3.50;;;3.20;;
52934;SDS011;38802;50.198;19.796;2023-04-30T11:49:22;3.60;;;2.30;;
52934;SDS011;38802;50.198;19.796;2023-04-30T11:51:50;4.20;;;3.10;;
52934;SDS011;38802;50.198;19.796;2023-04-30T11:54:20;9.50;;;2.90;;
52934;SDS011;38802;50.198;19.796;2023-04-30T11:56:48;2.90;;;2.50;;
52934;SDS011;38802;50.198;19.796;2023-04-30T11:59:17;5.70;;;2.60;;
52934;SDS011;38802;50.198;19.796;2023-04-30T12:01:45;4.00;;;2.50;;
52934;SDS011;38802;50.198;19.796;2023-04-30T12:04:13;5.80;;;2.30;;
52934;SDS011;38802;50.198;19.796;2023-04-30T12:06:42;5.60;;;2.50;;
52934;SDS011;38802;50.198;19.796;2023-04-30T12:09:10;4.60;;;2.50;;
52934;SDS011;38802;50.198;19.796;2023-04-30T12:11:38;6.20;;;1.80;;
52934;SDS011;38802;50.198;19.796;2023-04-30T12:14:07;3.30;;;2.30;;
52934;SDS011;38802;50.198;19.796;2023-04-30T12:16:39;3.30;;;2.50;;
52934;SDS011;38802;50.198;19.796;2023-04-30T12:19:12;7.20;;;2.80;;
52934;SDS011;38802;50.198;19.796;2023-04-30T12:21:41;4.30;;;2.40;;
52934;SDS011;38802;50.198;19.796;2023-04-30T12:24:18;5.50;;;2.50;;
52934;SDS011;38802;50.198;19.796;2023-04-30T12:26:46;8.50;;;2.90;;
52934;SDS011;38802;50.198;19.796;2023-04-30T12:29:15;3.50;;;2.70;;
52934;SDS011;38802;50.198;19.796;2023-04-30T12:31:44;7.20;;;3.00;;
52934;SDS011;38802;50.198;19.796;2023-04-30T12:34:15;3.00;;;2.40;;
52934;SDS011;38802;50.198;19.796;2023-04-30T12:36:45;3.90;;;2.50;;
52934;SDS011;38802;50.198;19.796;2023-04-30T12:39:14;5.20;;;2.00;;
52934;SDS011;38802;50.198;19.796;2023-04-30T12:41:46;3.60;;;2.50;;
52934;SDS011;38802;50.198;19.796;2023-04-30T12:44:17;3.10;;;1.90;;
52934;SDS011;38802;50.198;19.796;2023-04-30T12:46:46;3.40;;;2.40;;
52934;SDS011;38802;50.198;19.796;2023-04-30T12:49:22;3.40;;;2.00;;
52934;SDS011;38802;50.198;19.796;2023-04-30T12:51:56;5.60;;;2.40;;
52934;SDS011;38802;50.198;19.796;2023-04-30T12:54:29;4.60;;;2.20;;
52934;SDS011;38802;50.198;19.796;2023-04-30T12:57:02;6.10;;;2.50;;
52934;SDS011;38802;50.198;19.796;2023-04-30T12:59:39;5.90;;;2.40;;
52934;SDS011;38802;50.198;19.796;2023-04-30T13:02:29;3.30;;;2.90;;
52934;SDS011;38802;50.198;19.796;2023-04-30T13:04:59;3.00;;;2.10;;
52934;SDS011;38802;50.198;19.796;2023-04-30T13:07:35;5.30;;;2.60;;
52934;SDS011;38802;50.198;19.796;2023-04-30T13:10:04;4.20;;;2.20;;
52934;SDS011;38802;50.198;19.796;2023-04-30T13:12:33;6.50;;;2.70;;
52934;SDS011;38802;50.198;19.796;2023-04-30T13:15:01;4.10;;;2.50;;
52934;SDS011;38802;50.198;19.796;2023-04-30T13:17:30;6.70;;;2.30;;
52934;SDS011;38802;50.198;19.796;2023-04-30T13:19:58;5.90;;;2.10;;
52934;SDS011;38802;50.198;19.796;2023-04-30T13:22:26;3.80;;;2.50;;
52934;SDS011;38802;50.198;19.796;2023-04-30T13:24:56;5.40;;;2.50;;
52934;SDS011;38802;50.198;19.796;2023-04-30T13:27:24;6.00;;;2.50;;
52934;SDS011;38802;50.198;19.796;2023-04-30T13:29:52;4.00;;;2.20;;
52934;SDS011;38802;50.198;19.796;2023-04-30T13:32:20;4.70;;;2.50;;
52934;SDS011;38802;50.198;19.796;2023-04-30T13:34:48;3.00;;;2.30;;
52934;SDS011;38802;50.198;19.796;2023-04-30T13:37:19;6.10;;;2.20;;
52934;SDS011;38802;50.198;19.796;2023-04-30T13:39:47;7.10;;;2.20;;
52934;SDS011;38802;50.198;19.796;2023-04-30T13:42:15;5.70;;;2.20;;
52934;SDS011;38802;50.198;19.796;2023-04-30T13:44:44;7.00;;;2.10;;
52934;SDS011;38802;50.198;19.796;2023-04-30T13:47:12;5.10;;;2.00;;
52934;SDS011;38802;50.198;19.796;2023-04-30T13:49:40;4.20;;;2.80;;
52934;SDS011;38802;50.198;19.796;2023-04-30T13:52:08;6.20;;;2.20;;
52934;SDS011;38802;50.198;19.796;2023-04-30T13:54:36;2.70;;;2.40;;
52934;SDS011;38802;50.198;19.796;2023-04-30T13:57:05;6.30;;;2.60;;
52934;SDS011;38802;50.198;19.796;2023-04-30T14:06:24;5.20;;;3.00;;
52934;SDS011;38802;50.198;19.796;2023-04-30T14:08:52;4.00;;;1.90;;
52934;SDS011;38802;50.198;19.796;2023-04-30T14:11:20;6.40;;;2.30;;
52934;SDS011;38802;50.198;19.796;2023-04-30T14:13:48;4.70;;;2.50;;
52934;SDS011;38802;50.198;19.796;2023-04-30T14:16:16;7.10;;;2.30;;
52934;SDS011;38802;50.198;19.796;2023-04-30T14:18:46;7.10;;;2.30;;
52934;SDS011;38802;50.198;19.796;2023-04-30T14:21:14;3.30;;;2.70;;
52934;SDS011;38802;50.198;19.796;2023-04-30T14:23:42;6.10;;;2.60;;
52934;SDS011;38802;50.198;19.796;2023-04-30T14:26:13;2.60;;;2.10;;
52934;SDS011;38802;50.198;19.796;2023-04-30T14:28:41;4.30;;;1.80;;
52934;SDS011;38802;50.198;19.796;2023-04-30T14:31:09;4.70;;;2.40;;
52934;SDS011;38802;50.198;19.796;2023-04-30T14:33:37;5.30;;;2.20;;
52934;SDS011;38802;50.198;19.796;2023-04-30T14:36:05;6.50;;;2.50;;
52934;SDS011;38802;50.198;19.796;2023-04-30T14:38:34;4.90;;;2.90;;
52934;SDS011;38802;50.198;19.796;2023-04-30T14:41:02;5.20;;;2.50;;
52934;SDS011;38802;50.198;19.796;2023-04-30T14:43:30;7.00;;;2.30;;
52934;SDS011;38802;50.198;19.796;2023-04-30T14:45:58;3.30;;;1.90;;
52934;SDS011;38802;50.198;19.796;2023-04-30T14:48:26;2.60;;;2.00;;
52934;SDS011;38802;50.198;19.796;2023-04-30T14:50:54;4.60;;;2.60;;
52934;SDS011;38802;50.198;19.796;2023-04-30T14:53:22;2.30;;;2.00;;
52934;SDS011;38802;50.198;19.796;2023-04-30T14:55:50;4.30;;;2.40;;
52934;SDS011;38802;50.198;19.796;2023-04-30T14:58:18;3.80;;;2.10;;
52934;SDS011;38802;50.198;19.796;2023-04-30T15:00:47;5.30;;;1.90;;
52934;SDS011;38802;50.198;19.796;2023-04-30T15:03:15;4.90;;;2.10;;
52934;SDS011;38802;50.198;19.796;2023-04-30T15:05:43;5.20;;;1.90;;
52934;SDS011;38802;50.198;19.796;2023-04-30T15:08:11;5.30;;;2.30;;
52934;SDS011;38802;50.198;19.796;2023-04-30T15:10:39;4.90;;;2.00;;
52934;SDS011;38802;50.198;19.796;2023-04-30T15:13:08;3.90;;;2.10;;
52934;SDS011;38802;50.198;19.796;2023-04-30T15:15:36;5.50;;;2.80;;
52934;SDS011;38802;50.198;19.796;2023-04-30T15:18:04;4.70;;;2.10;;